Time,TemperatureF,DewpointF,PressureIn,WindDirection,WindDirectionDegrees,WindSpeedMPH,WindSpeedGustMPH,Humidity,HourlyPrecipIn,Conditions,Clouds,dailyrainin,SoftwareType,DateUTC
2013-08-24 00:14:00,61.0,53.0,30.02,NNW,348,0.0,1.0,76,0.00,,,0.24,,2013-08-24 04:14:00,
2013-08-24 00:24:00,60.0,53.0,30.02,NNW,348,0.0,2.0,77,0.00,,,0.24,,2013-08-24 04:24:00,
2013-08-24 00:44:00,60.0,52.0,30.03,NNW,348,0.0,0.0,76,0.00,,,0.24,,2013-08-24 04:44:00,
2013-08-24 00:53:00,59.0,52.0,30.03,NNE,15,0.0,1.0,77,0.00,,,0.24,,2013-08-24 04:53:00,
2013-08-24 01:13:00,59.0,52.0,30.04,NNE,15,0.0,0.0,78,0.00,,,0.24,,2013-08-24 05:13:00,
2013-08-24 01:23:00,59.0,52.0,30.05,NNE,15,0.0,0.0,79,0.00,,,0.24,,2013-08-24 05:23:00,
2013-08-24 01:43:00,58.0,52.0,30.05,NNE,15,0.0,0.0,81,0.00,,,0.24,,2013-08-24 05:43:00,
2013-08-24 01:53:00,58.0,53.0,30.05,NNE,15,0.0,2.0,83,0.00,,,0.24,,2013-08-24 05:53:00,
2013-08-24 02:12:00,57.0,52.0,30.05,NNE,15,0.0,3.0,84,0.00,,,0.24,,2013-08-24 06:12:00,
2013-08-24 02:22:00,57.0,53.0,30.05,NNE,15,0.0,1.0,85,0.00,,,0.24,,2013-08-24 06:22:00,
2013-08-24 02:42:00,56.0,52.0,30.06,NNE,15,0.0,0.0,86,0.00,,,0.24,,2013-08-24 06:42:00,
2013-08-24 02:52:00,55.0,51.0,30.07,NNE,15,0.0,0.0,87,0.00,,,0.24,,2013-08-24 06:52:00,
2013-08-24 03:12:00,55.0,52.0,30.07,NNE,15,0.0,0.0,88,0.00,,,0.24,,2013-08-24 07:12:00,
2013-08-24 03:22:00,55.0,52.0,30.07,NNE,15,0.0,0.0,89,0.00,,,0.24,,2013-08-24 07:22:00,
2013-08-24 03:43:00,54.0,51.0,30.07,NNE,15,0.0,1.0,89,0.00,,,0.24,,2013-08-24 07:43:00,
2013-08-24 03:53:00,54.0,51.0,30.08,NNE,15,0.0,0.0,89,0.00,,,0.24,,2013-08-24 07:53:00,
2013-08-24 04:12:00,54.0,51.0,30.09,NNE,15,0.0,0.0,89,0.00,,,0.24,,2013-08-24 08:12:00,
2013-08-24 04:22:00,53.0,50.0,30.09,NNE,15,1.0,3.0,90,0.00,,,0.24,,2013-08-24 08:22:00,
2013-08-24 04:42:00,53.0,50.0,30.09,NNE,30,0.0,3.0,91,0.00,,,0.24,,2013-08-24 08:42:00,
2013-08-24 04:52:00,53.0,50.0,30.10,NNE,30,0.0,2.0,91,0.00,,,0.24,,2013-08-24 08:52:00,
2013-08-24 05:11:00,53.0,50.0,30.11,NNE,30,0.0,3.0,91,0.00,,,0.24,,2013-08-24 09:11:00,
2013-08-24 05:22:00,53.0,50.0,30.11,NE,40,0.0,2.0,91,0.00,,,0.24,,2013-08-24 09:22:00,
2013-08-24 05:44:00,53.0,50.0,30.12,NNE,32,0.0,2.0,91,0.00,,,0.24,,2013-08-24 09:44:00,
2013-08-24 05:53:00,52.0,49.0,30.13,NNE,31,0.0,2.0,91,0.00,,,0.24,,2013-08-24 09:53:00,
2013-08-24 06:13:00,52.0,49.0,30.13,NNE,31,0.0,1.0,91,0.00,,,0.24,,2013-08-24 10:13:00,
2013-08-24 06:23:00,52.0,50.0,30.14,NNE,31,0.0,0.0,92,0.00,,,0.24,,2013-08-24 10:23:00,
2013-08-24 06:42:00,51.0,49.0,30.15,NNE,31,0.0,0.0,92,0.00,,,0.24,,2013-08-24 10:42:00,
2013-08-24 06:53:00,51.0,49.0,30.16,NNE,31,0.0,0.0,93,0.00,,,0.24,,2013-08-24 10:53:00,
2013-08-24 07:12:00,51.0,49.0,30.16,NNE,31,0.0,0.0,93,0.00,,,0.24,,2013-08-24 11:12:00,
2013-08-24 07:22:00,51.0,50.0,30.16,NNE,31,0.0,2.0,95,0.00,,,0.00,,2013-08-24 11:22:00,
2013-08-24 07:42:00,52.0,51.0,30.17,NNE,31,1.0,3.0,95,0.00,,,0.00,,2013-08-24 11:42:00,
2013-08-24 07:52:00,54.0,52.0,30.17,NNE,26,2.0,5.0,94,0.00,,,0.00,,2013-08-24 11:52:00,
2013-08-24 08:12:00,55.0,52.0,30.17,North,355,2.0,5.0,90,0.00,,,0.00,,2013-08-24 12:12:00,
2013-08-24 08:21:00,57.0,53.0,30.18,North,360,2.0,5.0,87,0.00,,,0.00,,2013-08-24 12:21:00,
2013-08-24 08:42:00,58.0,53.0,30.18,NNW,339,2.0,6.0,84,0.00,,,0.00,,2013-08-24 12:42:00,
2013-08-24 08:52:00,60.0,54.0,30.18,NNW,340,3.0,7.0,80,0.00,,,0.00,,2013-08-24 12:52:00,
2013-08-24 09:11:00,61.0,54.0,30.19,NNE,28,1.0,6.0,78,0.00,,,0.00,,2013-08-24 13:11:00,
2013-08-24 09:22:00,62.0,54.0,30.19,North,5,3.0,6.0,76,0.00,,,0.00,,2013-08-24 13:22:00,
2013-08-24 09:42:00,63.0,54.0,30.19,North,350,3.0,6.0,73,0.00,,,0.00,,2013-08-24 13:42:00,
2013-08-24 09:52:00,65.0,55.0,30.19,NW,321,2.0,6.0,71,0.00,,,0.00,,2013-08-24 13:52:00,
2013-08-24 10:11:00,70.0,56.0,30.19,NE,49,3.0,8.0,62,0.00,,,0.00,,2013-08-24 14:11:00,
2013-08-24 15:42:00,84.0,50.0,30.16,NE,34,0.0,6.0,31,0.00,,,0.00,,2013-08-24 19:42:00,
2013-08-24 17:11:00,84.0,51.0,30.16,NE,44,2.0,7.0,32,0.00,,,0.00,,2013-08-24 21:11:00,
2013-08-24 17:22:00,82.0,49.0,30.15,SW,217,1.0,4.0,32,0.00,,,0.00,,2013-08-24 21:22:00,
2013-08-24 17:43:00,80.0,51.0,30.15,NNW,329,3.0,6.0,37,0.00,,,0.00,,2013-08-24 21:43:00,
2013-08-24 17:55:00,78.0,49.0,30.15,South,178,1.0,4.0,36,0.00,,,0.00,,2013-08-24 21:55:00,
2013-08-24 18:14:00,77.0,51.0,30.15,NNW,345,1.0,6.0,41,0.00,,,0.00,,2013-08-24 22:14:00,
2013-08-24 18:24:00,76.0,49.0,30.15,South,182,2.0,5.0,39,0.00,,,0.00,,2013-08-24 22:24:00,
2013-08-24 18:43:00,76.0,52.0,30.15,ESE,120,0.0,2.0,43,0.00,,,0.00,,2013-08-24 22:43:00,
2013-08-24 18:53:00,75.0,55.0,30.15,SSE,161,0.0,4.0,49,0.04,,,0.04,,2013-08-24 22:53:00,
2013-08-24 19:12:00,73.0,61.0,30.15,SW,226,0.0,0.0,67,0.16,,,0.16,,2013-08-24 23:12:00,
2013-08-24 19:22:00,69.0,58.0,30.15,SW,226,0.0,0.0,68,0.22,,,0.22,,2013-08-24 23:22:00,
2013-08-24 19:43:00,67.0,56.0,30.15,SW,226,0.0,0.0,69,0.22,,,0.22,,2013-08-24 23:43:00,
2013-08-24 19:53:00,66.0,59.0,30.16,SW,226,0.0,0.0,79,0.18,,,0.22,,2013-08-24 23:53:00,
2013-08-24 20:12:00,65.0,60.0,30.16,SW,226,0.0,0.0,84,0.06,,,0.22,,2013-08-25 00:12:00,
2013-08-24 20:22:00,64.0,58.0,30.17,SW,226,0.0,0.0,80,0.00,,,0.22,,2013-08-25 00:22:00,
2013-08-24 20:42:00,63.0,59.0,30.18,SW,226,0.0,0.0,86,0.00,,,0.22,,2013-08-25 00:42:00,
2013-08-24 20:52:00,62.0,57.0,30.18,SW,226,0.0,0.0,84,0.00,,,0.22,,2013-08-25 00:52:00,
2013-08-24 21:11:00,61.0,54.0,30.19,SW,226,0.0,1.0,79,0.00,,,0.22,,2013-08-25 01:11:00,
2013-08-24 21:22:00,60.0,56.0,30.19,SW,226,0.0,0.0,86,0.00,,,0.22,,2013-08-25 01:22:00,
2013-08-24 21:42:00,60.0,56.0,30.19,SW,226,0.0,0.0,86,0.00,,,0.22,,2013-08-25 01:42:00,
2013-08-24 21:52:00,59.0,55.0,30.20,SW,226,0.0,0.0,86,0.00,,,0.22,,2013-08-25 01:52:00,
2013-08-24 22:12:00,59.0,56.0,30.20,SW,226,0.0,0.0,89,0.00,,,0.22,,2013-08-25 02:12:00,
2013-08-24 22:22:00,58.0,55.0,30.20,SW,226,0.0,1.0,89,0.00,,,0.22,,2013-08-25 02:22:00,
2013-08-24 22:42:00,58.0,55.0,30.20,SW,226,0.0,0.0,90,0.00,,,0.22,,2013-08-25 02:42:00,
2013-08-24 22:52:00,58.0,55.0,30.20,SW,226,0.0,1.0,91,0.00,,,0.22,,2013-08-25 02:52:00,
2013-08-24 23:11:00,57.0,54.0,30.20,SW,226,0.0,0.0,91,0.00,,,0.22,,2013-08-25 03:11:00,
2013-08-24 23:23:00,57.0,55.0,30.20,SW,226,0.0,1.0,92,0.00,,,0.22,,2013-08-25 03:23:00,
2013-08-24 23:44:00,56.0,54.0,30.21,SW,226,0.0,0.0,92,0.00,,,0.22,,2013-08-25 03:44:00,
2013-08-24 23:54:00,56.0,54.0,30.21,SW,226,0.0,0.0,92,0.00,,,0.22,,2013-08-25 03:54:00,